sensor_id;sensor_type;location;lat;lon;timestamp;temperature;humidity
11387;DHT22;5748;53.102;8.456;2023-04-12T00:02:23;9.10;52.60
11387;DHT22;5748;53.102;8.456;2023-04-12T00:04:51;9.20;52.50
11387;DHT22;5748;53.102;8.456;2023-04-12T00:07:22;9.30;52.60
11387;DHT22;5748;53.102;8.456;2023-04-12T00:09:49;9.40;52.70
11387;DHT22;5748;53.102;8.456;2023-04-12T00:12:18;9.40;52.30
11387;DHT22;5748;53.102;8.456;2023-04-12T00:14:46;9.60;52.40
11387;DHT22;5748;53.102;8.456;2023-04-12T00:17:13;9.40;52.40
11387;DHT22;5748;53.102;8.456;2023-04-12T00:19:40;9.40;52.30
11387;DHT22;5748;53.102;8.456;2023-04-12T00:22:07;9.50;52.30
11387;DHT22;5748;53.102;8.456;2023-04-12T00:24:37;9.50;52.40
11387;DHT22;5748;53.102;8.456;2023-04-12T00:27:04;9.50;52.20
11387;DHT22;5748;53.102;8.456;2023-04-12T00:29:33;9.50;52.00
11387;DHT22;5748;53.102;8.456;2023-04-12T00:32:01;9.50;52.00
11387;DHT22;5748;53.102;8.456;2023-04-12T00:34:30;9.60;52.20
11387;DHT22;5748;53.102;8.456;2023-04-12T00:36:57;9.60;52.20
11387;DHT22;5748;53.102;8.456;2023-04-12T00:39:24;9.60;52.20
11387;DHT22;5748;53.102;8.456;2023-04-12T00:41:51;9.60;52.20
11387;DHT22;5748;53.102;8.456;2023-04-12T00:44:21;9.60;52.20
11387;DHT22;5748;53.102;8.456;2023-04-12T00:46:50;9.60;52.20
11387;DHT22;5748;53.102;8.456;2023-04-12T00:49:17;9.60;52.10
11387;DHT22;5748;53.102;8.456;2023-04-12T00:51:44;9.60;52.10
11387;DHT22;5748;53.102;8.456;2023-04-12T00:54:12;9.70;52.10
11387;DHT22;5748;53.102;8.456;2023-04-12T00:56:45;9.70;52.30
11387;DHT22;5748;53.102;8.456;2023-04-12T00:59:12;9.70;52.30
11387;DHT22;5748;53.102;8.456;2023-04-12T01:01:39;9.70;52.00
11387;DHT22;5748;53.102;8.456;2023-04-12T01:04:08;9.80;52.00
11387;DHT22;5748;53.102;8.456;2023-04-12T01:06:49;9.80;52.00
11387;DHT22;5748;53.102;8.456;2023-04-12T01:09:34;9.80;52.00
11387;DHT22;5748;53.102;8.456;2023-04-12T01:12:10;9.80;52.00
11387;DHT22;5748;53.102;8.456;2023-04-12T01:14:46;9.90;52.00
11387;DHT22;5748;53.102;8.456;2023-04-12T01:17:28;9.90;52.00
11387;DHT22;5748;53.102;8.456;2023-04-12T01:20:10;9.90;52.00
11387;DHT22;5748;53.102;8.456;2023-04-12T01:22:58;9.90;51.90
11387;DHT22;5748;53.102;8.456;2023-04-12T01:29:08;10.00;51.00
11387;DHT22;5748;53.102;8.456;2023-04-12T01:31:39;10.00;50.90
11387;DHT22;5748;53.102;8.456;2023-04-12T01:34:09;10.00;50.80
11387;DHT22;5748;53.102;8.456;2023-04-12T01:36:38;10.00;50.90
11387;DHT22;5748;53.102;8.456;2023-04-12T01:39:06;10.00;50.90
11387;DHT22;5748;53.102;8.456;2023-04-12T01:41:39;10.00;50.80
11387;DHT22;5748;53.102;8.456;2023-04-12T01:44:14;10.00;50.80
11387;DHT22;5748;53.102;8.456;2023-04-12T01:46:42;10.00;50.80
11387;DHT22;5748;53.102;8.456;2023-04-12T01:49:09;10.00;50.80
11387;DHT22;5748;53.102;8.456;2023-04-12T01:51:49;10.10;50.80
11387;DHT22;5748;53.102;8.456;2023-04-12T01:54:20;10.10;50.80
11387;DHT22;5748;53.102;8.456;2023-04-12T01:56:53;10.10;50.90
11387;DHT22;5748;53.102;8.456;2023-04-12T01:59:26;10.10;50.80
11387;DHT22;5748;53.102;8.456;2023-04-12T02:01:57;10.10;50.90
11387;DHT22;5748;53.102;8.456;2023-04-12T02:04:24;12.00;52.50
11387;DHT22;5748;53.102;8.456;2023-04-12T02:06:52;10.10;50.80
11387;DHT22;5748;53.102;8.456;2023-04-12T02:09:19;10.10;50.80
11387;DHT22;5748;53.102;8.456;2023-04-12T02:11:48;10.10;50.80
11387;DHT22;5748;53.102;8.456;2023-04-12T02:14:15;10.00;50.80
11387;DHT22;5748;53.102;8.456;2023-04-12T02:16:44;10.10;50.80
11387;DHT22;5748;53.102;8.456;2023-04-12T02:19:17;10.00;50.80
11387;DHT22;5748;53.102;8.456;2023-04-12T02:21:45;10.00;50.90
11387;DHT22;5748;53.102;8.456;2023-04-12T02:24:13;10.00;50.90
11387;DHT22;5748;53.102;8.456;2023-04-12T02:26:40;10.10;51.10
11387;DHT22;5748;53.102;8.456;2023-04-12T02:29:08;10.00;51.00
11387;DHT22;5748;53.102;8.456;2023-04-12T02:31:39;10.00;51.00
11387;DHT22;5748;53.102;8.456;2023-04-12T02:34:08;10.00;50.90
11387;DHT22;5748;53.102;8.456;2023-04-12T02:36:35;10.00;50.90
11387;DHT22;5748;53.102;8.456;2023-04-12T02:39:02;10.00;50.90
11387;DHT22;5748;53.102;8.456;2023-04-12T02:41:29;10.10;51.10
11387;DHT22;5748;53.102;8.456;2023-04-12T02:44:04;11.10;51.70
11387;DHT22;5748;53.102;8.456;2023-04-12T02:46:31;10.00;51.10
11387;DHT22;5748;53.102;8.456;2023-04-12T02:48:58;10.10;51.00
11387;DHT22;5748;53.102;8.456;2023-04-12T02:51:26;10.10;51.00
11387;DHT22;5748;53.102;8.456;2023-04-12T02:53:53;10.10;51.10
11387;DHT22;5748;53.102;8.456;2023-04-12T02:56:20;10.10;51.20
11387;DHT22;5748;53.102;8.456;2023-04-12T02:58:49;10.10;51.20
11387;DHT22;5748;53.102;8.456;2023-04-12T03:01:18;10.10;51.10
11387;DHT22;5748;53.102;8.456;2023-04-12T03:03:45;10.10;51.30
11387;DHT22;5748;53.102;8.456;2023-04-12T03:06:12;11.40;52.30
11387;DHT22;5748;53.102;8.456;2023-04-12T03:08:40;10.10;51.30
11387;DHT22;5748;53.102;8.456;2023-04-12T03:11:07;10.10;51.40
11387;DHT22;5748;53.102;8.456;2023-04-12T03:13:34;10.20;51.60
11387;DHT22;5748;53.102;8.456;2023-04-12T03:16:19;10.10;51.20
11387;DHT22;5748;53.102;8.456;2023-04-12T03:19:01;10.10;51.70
11387;DHT22;5748;53.102;8.456;2023-04-12T03:21:28;10.10;51.40
11387;DHT22;5748;53.102;8.456;2023-04-12T03:23:58;10.20;51.20
11387;DHT22;5748;53.102;8.456;2023-04-12T03:26:26;10.10;51.20
11387;DHT22;5748;53.102;8.456;2023-04-12T03:28:58;10.10;51.20
11387;DHT22;5748;53.102;8.456;2023-04-12T03:31:26;10.20;51.30
11387;DHT22;5748;53.102;8.456;2023-04-12T03:33:53;10.10;51.30
11387;DHT22;5748;53.102;8.456;2023-04-12T03:36:28;10.10;51.20
11387;DHT22;5748;53.102;8.456;2023-04-12T03:38:55;10.00;51.30
11387;DHT22;5748;53.102;8.456;2023-04-12T03:41:24;10.10;51.20
11387;DHT22;5748;53.102;8.456;2023-04-12T03:43:51;10.10;51.30
11387;DHT22;5748;53.102;8.456;2023-04-12T03:46:18;10.10;51.20
11387;DHT22;5748;53.102;8.456;2023-04-12T03:48:45;10.10;51.20
11387;DHT22;5748;53.102;8.456;2023-04-12T03:51:13;10.00;51.20
11387;DHT22;5748;53.102;8.456;2023-04-12T03:53:40;11.00;51.90
11387;DHT22;5748;53.102;8.456;2023-04-12T03:56:08;10.00;51.70
11387;DHT22;5748;53.102;8.456;2023-04-12T03:58:38;10.00;51.30
11387;DHT22;5748;53.102;8.456;2023-04-12T04:01:05;10.00;51.30
11387;DHT22;5748;53.102;8.456;2023-04-12T04:03:34;10.70;51.90
11387;DHT22;5748;53.102;8.456;2023-04-12T04:06:01;9.90;52.00
11387;DHT22;5748;53.102;8.456;2023-04-12T04:08:28;9.90;52.20
11387;DHT22;5748;53.102;8.456;2023-04-12T04:10:57;9.90;52.60
11387;DHT22;5748;53.102;8.456;2023-04-12T04:13:24;9.80;52.40
11387;DHT22;5748;53.102;8.456;2023-04-12T04:16:04;9.80;52.40
11387;DHT22;5748;53.102;8.456;2023-04-12T04:18:34;9.80;52.50
11387;DHT22;5748;53.102;8.456;2023-04-12T04:21:03;9.80;52.30
11387;DHT22;5748;53.102;8.456;2023-04-12T04:23:32;9.80;52.40
11387;DHT22;5748;53.102;8.456;2023-04-12T04:26:03;9.80;52.60
11387;DHT22;5748;53.102;8.456;2023-04-12T04:28:34;9.80;52.90
11387;DHT22;5748;53.102;8.456;2023-04-12T04:31:08;9.80;52.70
11387;DHT22;5748;53.102;8.456;2023-04-12T04:33:35;9.80;52.80
11387;DHT22;5748;53.102;8.456;2023-04-12T04:36:04;9.80;52.60
11387;DHT22;5748;53.102;8.456;2023-04-12T04:38:32;9.80;52.90
11387;DHT22;5748;53.102;8.456;2023-04-12T04:41:00;9.80;52.80
11387;DHT22;5748;53.102;8.456;2023-04-12T04:43:28;9.80;52.90
11387;DHT22;5748;53.102;8.456;2023-04-12T04:45:55;9.90;53.10
11387;DHT22;5748;53.102;8.456;2023-04-12T04:48:24;9.90;52.90
11387;DHT22;5748;53.102;8.456;2023-04-12T04:50:51;9.90;53.10
11387;DHT22;5748;53.102;8.456;2023-04-12T04:53:20;9.90;52.80
11387;DHT22;5748;53.102;8.456;2023-04-12T04:55:47;9.90;52.90
11387;DHT22;5748;53.102;8.456;2023-04-12T04:58:14;9.90;53.20
11387;DHT22;5748;53.102;8.456;2023-04-12T05:00:42;9.90;53.10
11387;DHT22;5748;53.102;8.456;2023-04-12T05:03:10;9.90;53.10
11387;DHT22;5748;53.102;8.456;2023-04-12T05:05:39;9.90;53.20
11387;DHT22;5748;53.102;8.456;2023-04-12T05:08:06;10.00;52.20
11387;DHT22;5748;53.102;8.456;2023-04-12T05:10:33;10.00;52.20
11387;DHT22;5748;53.102;8.456;2023-04-12T05:13:00;10.10;52.10
11387;DHT22;5748;53.102;8.456;2023-04-12T05:15:28;10.00;52.40
11387;DHT22;5748;53.102;8.456;2023-04-12T05:17:55;10.00;52.30
11387;DHT22;5748;53.102;8.456;2023-04-12T05:20:22;10.80;52.80
11387;DHT22;5748;53.102;8.456;2023-04-12T05:22:51;10.10;52.50
11387;DHT22;5748;53.102;8.456;2023-04-12T05:25:18;10.00;52.60
11387;DHT22;5748;53.102;8.456;2023-04-12T05:27:46;10.10;52.20
11387;DHT22;5748;53.102;8.456;2023-04-12T05:30:13;10.10;52.40
11387;DHT22;5748;53.102;8.456;2023-04-12T05:32:40;10.20;52.40
11387;DHT22;5748;53.102;8.456;2023-04-12T05:35:08;10.20;52.50
11387;DHT22;5748;53.102;8.456;2023-04-12T05:37:35;10.30;52.50
11387;DHT22;5748;53.102;8.456;2023-04-12T05:40:04;10.30;52.50
11387;DHT22;5748;53.102;8.456;2023-04-12T05:42:33;10.40;52.90
11387;DHT22;5748;53.102;8.456;2023-04-12T05:45:01;10.40;52.60
11387;DHT22;5748;53.102;8.456;2023-04-12T05:47:28;10.50;52.70
11387;DHT22;5748;53.102;8.456;2023-04-12T05:49:55;10.60;52.70
11387;DHT22;5748;53.102;8.456;2023-04-12T05:52:22;10.60;52.60
11387;DHT22;5748;53.102;8.456;2023-04-12T05:54:51;10.70;52.70
11387;DHT22;5748;53.102;8.456;2023-04-12T05:57:21;11.90;53.70
11387;DHT22;5748;53.102;8.456;2023-04-12T05:59:47;10.80;52.70
11387;DHT22;5748;53.102;8.456;2023-04-12T06:02:17;10.90;52.70
11387;DHT22;5748;53.102;8.456;2023-04-12T06:04:44;10.90;52.80
11387;DHT22;5748;53.102;8.456;2023-04-12T06:07:11;11.00;52.90
11387;DHT22;5748;53.102;8.456;2023-04-12T06:09:38;11.00;52.80
11387;DHT22;5748;53.102;8.456;2023-04-12T06:12:07;11.20;52.90
11387;DHT22;5748;53.102;8.456;2023-04-12T06:14:35;11.20;53.00
11387;DHT22;5748;53.102;8.456;2023-04-12T06:17:02;11.20;52.80
11387;DHT22;5748;53.102;8.456;2023-04-12T06:19:29;11.20;52.80
11387;DHT22;5748;53.102;8.456;2023-04-12T06:21:56;11.30;52.80
11387;DHT22;5748;53.102;8.456;2023-04-12T06:24:24;11.40;53.00
11387;DHT22;5748;53.102;8.456;2023-04-12T06:26:51;11.40;52.90
11387;DHT22;5748;53.102;8.456;2023-04-12T06:29:18;11.50;53.00
11387;DHT22;5748;53.102;8.456;2023-04-12T06:31:46;11.60;53.00
11387;DHT22;5748;53.102;8.456;2023-04-12T06:34:13;11.70;53.80
11387;DHT22;5748;53.102;8.456;2023-04-12T06:36:41;11.70;53.00
11387;DHT22;5748;53.102;8.456;2023-04-12T06:39:10;11.80;53.10
11387;DHT22;5748;53.102;8.456;2023-04-12T06:41:38;11.90;52.90
11387;DHT22;5748;53.102;8.456;2023-04-12T06:44:08;11.90;52.90
11387;DHT22;5748;53.102;8.456;2023-04-12T06:46:35;12.00;53.00
11387;DHT22;5748;53.102;8.456;2023-04-12T06:49:03;12.10;53.00
11387;DHT22;5748;53.102;8.456;2023-04-12T06:51:30;12.10;53.10
11387;DHT22;5748;53.102;8.456;2023-04-12T06:53:59;12.10;52.90
11387;DHT22;5748;53.102;8.456;2023-04-12T06:56:26;12.30;53.00
11387;DHT22;5748;53.102;8.456;2023-04-12T06:58:53;12.30;53.00
11387;DHT22;5748;53.102;8.456;2023-04-12T07:01:20;12.40;53.00
11387;DHT22;5748;53.102;8.456;2023-04-12T07:03:47;12.40;53.00
11387;DHT22;5748;53.102;8.456;2023-04-12T07:06:15;12.50;53.10
11387;DHT22;5748;53.102;8.456;2023-04-12T07:08:42;14.40;54.60
11387;DHT22;5748;53.102;8.456;2023-04-12T07:11:10;12.70;53.10
11387;DHT22;5748;53.102;8.456;2023-04-12T07:13:37;12.80;53.10
11387;DHT22;5748;53.102;8.456;2023-04-12T07:16:05;12.90;53.20
11387;DHT22;5748;53.102;8.456;2023-04-12T07:18:32;12.90;53.20
11387;DHT22;5748;53.102;8.456;2023-04-12T07:20:59;13.00;53.30
11387;DHT22;5748;53.102;8.456;2023-04-12T07:23:27;13.20;53.20
11387;DHT22;5748;53.102;8.456;2023-04-12T07:25:58;13.60;53.30
11387;DHT22;5748;53.102;8.456;2023-04-12T07:28:26;13.30;52.90
11387;DHT22;5748;53.102;8.456;2023-04-12T07:30:53;13.40;52.40
11387;DHT22;5748;53.102;8.456;2023-04-12T07:33:20;13.50;52.80
11387;DHT22;5748;53.102;8.456;2023-04-12T07:35:47;13.60;52.80
11387;DHT22;5748;53.102;8.456;2023-04-12T07:38:14;13.70;53.00
11387;DHT22;5748;53.102;8.456;2023-04-12T07:40:43;13.70;52.80
11387;DHT22;5748;53.102;8.456;2023-04-12T07:43:10;13.80;52.60
11387;DHT22;5748;53.102;8.456;2023-04-12T07:45:37;13.90;52.50
11387;DHT22;5748;53.102;8.456;2023-04-12T07:48:04;14.60;53.30
11387;DHT22;5748;53.102;8.456;2023-04-12T07:50:32;14.00;52.70
11387;DHT22;5748;53.102;8.456;2023-04-12T07:53:17;15.10;53.60
11387;DHT22;5748;53.102;8.456;2023-04-12T07:55:53;14.10;52.90
11387;DHT22;5748;53.102;8.456;2023-04-12T07:58:21;14.10;52.70
11387;DHT22;5748;53.102;8.456;2023-04-12T08:00:49;14.20;53.00
11387;DHT22;5748;53.102;8.456;2023-04-12T08:03:17;14.10;53.20
11387;DHT22;5748;53.102;8.456;2023-04-12T08:05:45;14.30;53.60
11387;DHT22;5748;53.102;8.456;2023-04-12T08:08:17;14.30;53.30
11387;DHT22;5748;53.102;8.456;2023-04-12T08:10:45;14.40;53.30
11387;DHT22;5748;53.102;8.456;2023-04-12T08:13:13;14.40;53.10
11387;DHT22;5748;53.102;8.456;2023-04-12T08:15:40;14.40;52.90
11387;DHT22;5748;53.102;8.456;2023-04-12T08:18:08;14.40;53.00
11387;DHT22;5748;53.102;8.456;2023-04-12T08:20:35;14.30;53.00
11387;DHT22;5748;53.102;8.456;2023-04-12T08:23:04;14.90;53.60
11387;DHT22;5748;53.102;8.456;2023-04-12T08:25:32;15.80;54.80
11387;DHT22;5748;53.102;8.456;2023-04-12T08:27:59;16.30;55.60
11387;DHT22;5748;53.102;8.456;2023-04-12T08:30:27;14.20;53.70
11387;DHT22;5748;53.102;8.456;2023-04-12T08:32:54;16.00;55.30
11387;DHT22;5748;53.102;8.456;2023-04-12T08:35:22;14.20;53.90
11387;DHT22;5748;53.102;8.456;2023-04-12T08:37:49;16.10;55.50
11387;DHT22;5748;53.102;8.456;2023-04-12T08:40:16;14.10;53.90
11387;DHT22;5748;53.102;8.456;2023-04-12T08:42:43;14.20;54.30
11387;DHT22;5748;53.102;8.456;2023-04-12T08:45:11;14.10;54.20
11387;DHT22;5748;53.102;8.456;2023-04-12T08:47:41;14.10;54.50
11387;DHT22;5748;53.102;8.456;2023-04-12T08:50:11;14.10;55.00
11387;DHT22;5748;53.102;8.456;2023-04-12T08:52:39;14.10;55.10
11387;DHT22;5748;53.102;8.456;2023-04-12T08:55:08;14.10;55.10
11387;DHT22;5748;53.102;8.456;2023-04-12T08:57:36;14.00;55.20
11387;DHT22;5748;53.102;8.456;2023-04-12T09:00:07;14.00;55.60
11387;DHT22;5748;53.102;8.456;2023-04-12T09:02:35;13.90;55.20
11387;DHT22;5748;53.102;8.456;2023-04-12T09:05:05;13.90;55.50
11387;DHT22;5748;53.102;8.456;2023-04-12T09:07:34;13.90;55.70
11387;DHT22;5748;53.102;8.456;2023-04-12T09:10:01;13.90;55.60
11387;DHT22;5748;53.102;8.456;2023-04-12T09:12:29;13.90;55.60
11387;DHT22;5748;53.102;8.456;2023-04-12T09:15:07;13.90;55.80
11387;DHT22;5748;53.102;8.456;2023-04-12T09:17:37;13.90;56.60
11387;DHT22;5748;53.102;8.456;2023-04-12T09:20:34;13.90;56.40
11387;DHT22;5748;53.102;8.456;2023-04-12T09:23:15;13.90;57.30
11387;DHT22;5748;53.102;8.456;2023-04-12T09:25:44;13.90;56.70
11387;DHT22;5748;53.102;8.456;2023-04-12T09:28:21;13.90;56.70
11387;DHT22;5748;53.102;8.456;2023-04-12T09:30:51;14.00;57.20
11387;DHT22;5748;53.102;8.456;2023-04-12T09:33:19;14.10;57.10
11387;DHT22;5748;53.102;8.456;2023-04-12T09:35:48;14.00;56.60
11387;DHT22;5748;53.102;8.456;2023-04-12T09:38:16;14.10;57.30
11387;DHT22;5748;53.102;8.456;2023-04-12T09:40:43;14.00;56.80
11387;DHT22;5748;53.102;8.456;2023-04-12T09:43:10;14.00;57.20
11387;DHT22;5748;53.102;8.456;2023-04-12T09:45:38;14.00;56.60
11387;DHT22;5748;53.102;8.456;2023-04-12T09:48:05;13.90;56.80
11387;DHT22;5748;53.102;8.456;2023-04-12T09:50:33;15.40;58.40
11387;DHT22;5748;53.102;8.456;2023-04-12T09:53:03;13.90;56.70
11387;DHT22;5748;53.102;8.456;2023-04-12T09:55:41;13.90;57.20
11387;DHT22;5748;53.102;8.456;2023-04-12T09:58:09;13.90;57.30
11387;DHT22;5748;53.102;8.456;2023-04-12T10:00:37;13.90;57.20
11387;DHT22;5748;53.102;8.456;2023-04-12T10:03:04;14.00;57.40
11387;DHT22;5748;53.102;8.456;2023-04-12T10:05:31;14.00;57.30
11387;DHT22;5748;53.102;8.456;2023-04-12T10:07:59;14.00;57.30
11387;DHT22;5748;53.102;8.456;2023-04-12T10:10:28;14.00;58.30
11387;DHT22;5748;53.102;8.456;2023-04-12T10:12:57;14.00;57.50
11387;DHT22;5748;53.102;8.456;2023-04-12T10:15:24;14.00;57.50
11387;DHT22;5748;53.102;8.456;2023-04-12T10:17:53;13.90;57.60
11387;DHT22;5748;53.102;8.456;2023-04-12T10:20:22;14.20;58.40
11387;DHT22;5748;53.102;8.456;2023-04-12T10:22:50;13.90;57.60
11387;DHT22;5748;53.102;8.456;2023-04-12T10:25:21;13.90;57.40
11387;DHT22;5748;53.102;8.456;2023-04-12T10:27:50;13.90;58.20
11387;DHT22;5748;53.102;8.456;2023-04-12T10:30:24;14.20;57.90
11387;DHT22;5748;53.102;8.456;2023-04-12T10:33:09;13.90;58.40
11387;DHT22;5748;53.102;8.456;2023-04-12T10:35:55;13.90;58.20
11387;DHT22;5748;53.102;8.456;2023-04-12T10:38:25;13.90;58.70
11387;DHT22;5748;53.102;8.456;2023-04-12T10:41:11;14.00;57.50
11387;DHT22;5748;53.102;8.456;2023-04-12T10:43:43;14.00;58.20
11387;DHT22;5748;53.102;8.456;2023-04-12T10:49:19;14.00;59.20
11387;DHT22;5748;53.102;8.456;2023-04-12T10:52:11;14.00;58.20
11387;DHT22;5748;53.102;8.456;2023-04-12T10:54:44;13.90;59.80
11387;DHT22;5748;53.102;8.456;2023-04-12T10:57:48;13.90;58.30
11387;DHT22;5748;53.102;8.456;2023-04-12T11:00:18;13.90;59.20
11387;DHT22;5748;53.102;8.456;2023-04-12T11:03:07;13.90;58.40
11387;DHT22;5748;53.102;8.456;2023-04-12T11:05:55;13.80;59.20
11387;DHT22;5748;53.102;8.456;2023-04-12T11:08:25;13.80;59.10
11387;DHT22;5748;53.102;8.456;2023-04-12T11:10:58;13.90;59.00
11387;DHT22;5748;53.102;8.456;2023-04-12T11:13:33;13.90;59.50
11387;DHT22;5748;53.102;8.456;2023-04-12T11:16:02;13.90;59.50
11387;DHT22;5748;53.102;8.456;2023-04-12T11:18:32;13.90;59.20
11387;DHT22;5748;53.102;8.456;2023-04-12T11:21:01;14.00;59.30
11387;DHT22;5748;53.102;8.456;2023-04-12T11:23:29;14.00;59.40
11387;DHT22;5748;53.102;8.456;2023-04-12T11:25:57;14.00;59.10
11387;DHT22;5748;53.102;8.456;2023-04-12T11:28:24;14.10;59.20
11387;DHT22;5748;53.102;8.456;2023-04-12T11:30:53;14.10;59.70
11387;DHT22;5748;53.102;8.456;2023-04-12T11:33:31;14.10;59.20
11387;DHT22;5748;53.102;8.456;2023-04-12T11:36:02;14.10;59.70
11387;DHT22;5748;53.102;8.456;2023-04-12T11:38:40;14.50;59.70
11387;DHT22;5748;53.102;8.456;2023-04-12T11:41:08;14.20;59.60
11387;DHT22;5748;53.102;8.456;2023-04-12T11:43:36;14.30;59.00
11387;DHT22;5748;53.102;8.456;2023-04-12T11:46:05;14.30;59.00
11387;DHT22;5748;53.102;8.456;2023-04-12T11:48:32;14.30;59.20
11387;DHT22;5748;53.102;8.456;2023-04-12T11:51:17;14.30;59.20
11387;DHT22;5748;53.102;8.456;2023-04-12T11:53:45;14.30;59.20
11387;DHT22;5748;53.102;8.456;2023-04-12T11:56:30;14.40;59.00
11387;DHT22;5748;53.102;8.456;2023-04-12T11:58:58;14.30;60.10
11387;DHT22;5748;53.102;8.456;2023-04-12T12:01:26;14.40;59.30
11387;DHT22;5748;53.102;8.456;2023-04-12T12:03:54;14.40;59.20
11387;DHT22;5748;53.102;8.456;2023-04-12T12:06:22;14.40;59.60
11387;DHT22;5748;53.102;8.456;2023-04-12T12:08:58;14.40;59.00
11387;DHT22;5748;53.102;8.456;2023-04-12T12:11:26;14.40;59.30
11387;DHT22;5748;53.102;8.456;2023-04-12T12:13:54;14.40;59.00
11387;DHT22;5748;53.102;8.456;2023-04-12T12:16:27;14.50;59.10
11387;DHT22;5748;53.102;8.456;2023-04-12T12:18:55;14.50;59.40
11387;DHT22;5748;53.102;8.456;2023-04-12T12:21:23;14.40;59.20
11387;DHT22;5748;53.102;8.456;2023-04-12T12:23:50;14.50;59.10
11387;DHT22;5748;53.102;8.456;2023-04-12T12:26:21;14.40;59.00
11387;DHT22;5748;53.102;8.456;2023-04-12T12:28:54;14.40;59.10
11387;DHT22;5748;53.102;8.456;2023-04-12T12:31:23;14.50;59.00
11387;DHT22;5748;53.102;8.456;2023-04-12T12:33:55;14.50;59.50
11387;DHT22;5748;53.102;8.456;2023-04-12T12:36:28;15.30;59.90
11387;DHT22;5748;53.102;8.456;2023-04-12T12:39:02;14.40;60.20
11387;DHT22;5748;53.102;8.456;2023-04-12T12:41:31;14.50;59.80
11387;DHT22;5748;53.102;8.456;2023-04-12T12:43:58;14.50;59.90
11387;DHT22;5748;53.102;8.456;2023-04-12T12:46:26;14.50;59.20
11387;DHT22;5748;53.102;8.456;2023-04-12T12:48:54;14.50;59.20
11387;DHT22;5748;53.102;8.456;2023-04-12T12:51:21;14.50;60.00
11387;DHT22;5748;53.102;8.456;2023-04-12T12:53:48;14.50;59.90
11387;DHT22;5748;53.102;8.456;2023-04-12T12:56:15;14.90;59.80
11387;DHT22;5748;53.102;8.456;2023-04-12T12:58:42;14.60;59.50
11387;DHT22;5748;53.102;8.456;2023-04-12T13:01:09;14.60;59.30
11387;DHT22;5748;53.102;8.456;2023-04-12T13:03:36;14.70;59.30
11387;DHT22;5748;53.102;8.456;2023-04-12T13:06:08;14.60;59.20
11387;DHT22;5748;53.102;8.456;2023-04-12T13:08:35;14.70;59.80
11387;DHT22;5748;53.102;8.456;2023-04-12T13:11:02;14.80;59.80
11387;DHT22;5748;53.102;8.456;2023-04-12T13:13:29;14.80;59.80
11387;DHT22;5748;53.102;8.456;2023-04-12T13:15:56;14.90;59.70
11387;DHT22;5748;53.102;8.456;2023-04-12T13:18:23;15.00;59.70
11387;DHT22;5748;53.102;8.456;2023-04-12T13:20:50;15.00;59.60
11387;DHT22;5748;53.102;8.456;2023-04-12T13:23:18;15.10;59.80
11387;DHT22;5748;53.102;8.456;2023-04-12T13:25:45;15.20;59.70
11387;DHT22;5748;53.102;8.456;2023-04-12T13:28:12;15.20;59.60
11387;DHT22;5748;53.102;8.456;2023-04-12T13:30:41;15.30;59.70
11387;DHT22;5748;53.102;8.456;2023-04-12T13:33:08;15.40;59.70
11387;DHT22;5748;53.102;8.456;2023-04-12T13:35:35;15.40;59.90
11387;DHT22;5748;53.102;8.456;2023-04-12T13:38:02;15.40;59.50
11387;DHT22;5748;53.102;8.456;2023-04-12T13:40:30;15.50;59.50
11387;DHT22;5748;53.102;8.456;2023-04-12T13:42:57;15.60;59.60
11387;DHT22;5748;53.102;8.456;2023-04-12T13:45:24;15.60;59.60
11387;DHT22;5748;53.102;8.456;2023-04-12T13:47:51;15.70;59.60
11387;DHT22;5748;53.102;8.456;2023-04-12T13:50:18;15.90;59.90
11387;DHT22;5748;53.102;8.456;2023-04-12T13:52:45;15.80;59.60
11387;DHT22;5748;53.102;8.456;2023-04-12T13:55:12;15.90;59.50
11387;DHT22;5748;53.102;8.456;2023-04-12T13:57:41;16.00;59.40
11387;DHT22;5748;53.102;8.456;2023-04-12T14:00:09;16.00;59.20
11387;DHT22;5748;53.102;8.456;2023-04-12T14:02:36;16.00;59.20
11387;DHT22;5748;53.102;8.456;2023-04-12T14:05:04;16.00;59.00
11387;DHT22;5748;53.102;8.456;2023-04-12T14:07:32;16.10;59.20
11387;DHT22;5748;53.102;8.456;2023-04-12T14:09:59;16.10;58.90
11387;DHT22;5748;53.102;8.456;2023-04-12T14:12:26;16.10;58.60
11387;DHT22;5748;53.102;8.456;2023-04-12T14:14:55;16.20;58.50
11387;DHT22;5748;53.102;8.456;2023-04-12T14:17:22;16.20;58.50
11387;DHT22;5748;53.102;8.456;2023-04-12T14:19:49;16.20;58.50
11387;DHT22;5748;53.102;8.456;2023-04-12T14:22:16;16.10;58.40
11387;DHT22;5748;53.102;8.456;2023-04-12T14:24:43;16.10;58.40
11387;DHT22;5748;53.102;8.456;2023-04-12T14:27:10;16.10;58.40
11387;DHT22;5748;53.102;8.456;2023-04-12T14:29:37;16.10;58.40
11387;DHT22;5748;53.102;8.456;2023-04-12T14:32:06;16.10;58.60
11387;DHT22;5748;53.102;8.456;2023-04-12T14:34:33;16.00;58.60
11387;DHT22;5748;53.102;8.456;2023-04-12T14:37:02;16.00;58.50
11387;DHT22;5748;53.102;8.456;2023-04-12T14:39:29;16.10;58.70
11387;DHT22;5748;53.102;8.456;2023-04-12T14:41:59;16.10;58.90
11387;DHT22;5748;53.102;8.456;2023-04-12T14:44:27;16.10;59.00
11387;DHT22;5748;53.102;8.456;2023-04-12T14:46:54;16.10;59.10
11387;DHT22;5748;53.102;8.456;2023-04-12T14:49:22;16.10;59.20
11387;DHT22;5748;53.102;8.456;2023-04-12T14:51:49;16.30;59.60
11387;DHT22;5748;53.102;8.456;2023-04-12T14:54:16;16.30;59.50
11387;DHT22;5748;53.102;8.456;2023-04-12T14:56:50;16.50;59.40
11387;DHT22;5748;53.102;8.456;2023-04-12T14:59:17;16.50;59.40
11387;DHT22;5748;53.102;8.456;2023-04-12T15:01:44;16.60;59.10
11387;DHT22;5748;53.102;8.456;2023-04-12T15:04:11;16.70;59.10
11387;DHT22;5748;53.102;8.456;2023-04-12T15:06:39;16.80;58.90
11387;DHT22;5748;53.102;8.456;2023-04-12T15:09:09;16.80;58.60
11387;DHT22;5748;53.102;8.456;2023-04-12T15:11:36;16.90;58.50
11387;DHT22;5748;53.102;8.456;2023-04-12T15:14:04;16.90;58.30
11387;DHT22;5748;53.102;8.456;2023-04-12T15:16:31;16.90;58.10
11387;DHT22;5748;53.102;8.456;2023-04-12T15:19:00;16.90;58.00
11387;DHT22;5748;53.102;8.456;2023-04-12T15:21:27;16.90;58.00
11387;DHT22;5748;53.102;8.456;2023-04-12T15:23:55;16.80;57.70
11387;DHT22;5748;53.102;8.456;2023-04-12T15:26:28;16.70;57.60
11387;DHT22;5748;53.102;8.456;2023-04-12T15:28:56;16.70;57.60
11387;DHT22;5748;53.102;8.456;2023-04-12T15:31:24;16.60;57.50
11387;DHT22;5748;53.102;8.456;2023-04-12T15:33:57;16.60;57.60
11387;DHT22;5748;53.102;8.456;2023-04-12T15:36:25;16.50;57.70
11387;DHT22;5748;53.102;8.456;2023-04-12T15:39:00;16.50;57.50
11387;DHT22;5748;53.102;8.456;2023-04-12T15:41:42;16.50;57.80
11387;DHT22;5748;53.102;8.456;2023-04-12T15:44:11;16.40;57.80
11387;DHT22;5748;53.102;8.456;2023-04-12T15:46:39;16.40;57.70
11387;DHT22;5748;53.102;8.456;2023-04-12T15:49:07;16.30;57.70
11387;DHT22;5748;53.102;8.456;2023-04-12T15:51:35;16.30;57.60
11387;DHT22;5748;53.102;8.456;2023-04-12T15:54:03;16.30;57.60
11387;DHT22;5748;53.102;8.456;2023-04-12T15:56:30;16.20;57.60
11387;DHT22;5748;53.102;8.456;2023-04-12T15:58:59;16.20;57.70
11387;DHT22;5748;53.102;8.456;2023-04-12T16:01:26;16.20;57.70
11387;DHT22;5748;53.102;8.456;2023-04-12T16:03:53;16.10;57.80
11387;DHT22;5748;53.102;8.456;2023-04-12T16:06:20;16.10;57.80
11387;DHT22;5748;53.102;8.456;2023-04-12T16:08:50;16.10;58.00